27 maggio 2022

Tempo Codice Tempo metereologico Temp. Vista Base nuvolosa Vento METAR/SPECI
8:27 am
M
64 °F 12 mi 1.100 ft 210° 210° 10 kt METAR CYYZ 271227Z 21010KT 12SM FEW006 BKN011 OVC060 18/18 A2978 RMK SF2SC4SC2 SLP085 DENSITY ALT 1200FT
8:00 am
I
64 °F 10 mi 900 ft 190° 190° 6 kt METAR CYYZ 271200Z 19006KT 10SM -RA FEW004 OVC009 18/18 A2978 RMK SF2SC6 SLP084 DENSITY ALT 1200FT
7:48 am
I
64 °F 10 mi 800 ft 170° 170° 5 kt METAR CYYZ 271148Z 17005KT 160V220 10SM -RA BKN008 BKN045 OVC100 18/18 A2977 RMK SF5SC2AC1 SLP083 DENSITY ALT 1200FT
7:39 am
V
64 °F 12 mi 10.000 ft 170° 170° 5 kt METAR CYYZ 271139Z 17005KT 140V210 12SM -RA FEW008 SCT040 OVC100 18/18 A2976 RMK CF1SC2AS5 SLP079 DENSITY ALT 1200FT
7:00 am
V
64 °F 12 mi 7.000 ft 200° 200° 5 kt METAR CYYZ 271100Z 20005KT 12SM -RA SCT051 BKN070 OVC095 18/18 A2976 RMK SC3AC2AS3 SLP079 DENSITY ALT 1200FT
6:00 am
V
64 °F 12 mi 10.000 ft 200° 200° 6 kt METAR CYYZ 271000Z 20006KT 12SM -RA FEW050 OVC100 18/18 A2976 RMK SC1AC7 SLP077 DENSITY ALT 1300FT
5:00 am
V
64 °F 15 mi 10.000 ft 210° 210° 8 kt METAR CYYZ 270900Z 21008KT 15SM -RA FEW060 OVC100 18/18 A2977 RMK SC1AC7 SLP080 DENSITY ALT 1300FT
4:00 am
V
66 °F 15 mi 10.000 ft 220° 220° 9 - 15 kt METAR CYYZ 270800Z 22009G15KT 15SM -RA SCT025 OVC100 19/19 A2977 RMK SC4AC4 SLP081 DENSITY ALT 1400FT
3:00 am
V
68 °F 15 mi 12.000 ft 200° 200° 6 kt METAR CYYZ 270700Z 20006KT 15SM -RA FEW040 SCT080 OVC120 20/19 A2977 RMK SC2AC2AC4 SLP081 DENSITY ALT 1500FT
2:00 am
V
68 °F 15 mi 3.200 ft 170° 170° 5 kt METAR CYYZ 270600Z 17005KT 15SM -RA BKN032 BKN100 20/20 A2978 RMK SC5AC2 SLP083 DENSITY ALT 1400FT
1:47 am
V
68 °F 15 mi 4.000 ft 150° 150° 4 kt METAR CYYZ 270547Z 15004KT 15SM -RA SCT025 BKN040 BKN100 20/19 A2978 RMK SC3SC3AC1 SLP085 DENSITY ALT 1500FT
1:00 am
V
68 °F 15 mi 6.000 ft 160° 160° 7 kt METAR CYYZ 270500Z 16007KT 15SM SCT035 BKN060 20/19 A2979 RMK SC4SC3 SLP089 DENSITY ALT 1500FT
12:00 am
V
70 °F 15 mi 6.000 ft 160° 160° 5 kt METAR CYYZ 270400Z 16005KT 15SM SCT035 BKN060 OVC180 21/18 A2980 RMK SC4SC2AC2 SLP093 DENSITY ALT 1600FT

26 maggio 2022

Tempo Codice Tempo metereologico Temp. Vista Base nuvolosa Vento METAR/SPECI
11:00 pm
V
72 °F 15 mi 5.000 ft 210° 210° 5 kt METAR CYYZ 270300Z 21005KT 15SM BKN050 OVC200 22/18 A2981 RMK SC6CI2 SLP096 DENSITY ALT 1600FT
10:00 pm
V
72 °F 15 mi 15.000 ft 210° 210° 5 kt METAR CYYZ 270200Z 21005KT 15SM FEW110 BKN150 BKN220 22/18 A2982 RMK AC2AC3CI2 SLP098 DENSITY ALT 1600FT
9:00 pm
V
72 °F 15 mi 12.000 ft 220° 220° 8 - 15 kt METAR CYYZ 270100Z 22008G15KT 15SM FEW080 BKN120 BKN230 22/18 A2982 RMK AC2AC4CI1 SLP099 DENSITY ALT 1700FT
8:00 pm
V
72 °F 15 mi 10.000 ft 220° 220° 8 kt METAR CYYZ 270000Z 22008KT 15SM FEW040 SCT060 BKN100 OVC230 22/20 A2983 RMK SC2SC2AC2CI2 SLP101 DENSITY ALT 1700FT
7:48 pm
V
72 °F 15 mi 6.000 ft 220° 220° 6 kt METAR CYYZ 262348Z 22006KT 15SM SCT040 BKN060 OVC100 22/21 A2983 RMK SC4SC2AC2 SH DIST N-SE SLP103 DENSITY ALT 1700FT
7:21 pm
V
70 °F 12 mi 3.800 ft 240° 240° 15 - 22 kt METAR CYYZ 262321Z 24015G22KT 12SM R23/5500VP6000FT/U -RA BKN038 OVC070 21/21 A2983 RMK SC6AC2 SLP104 DENSITY ALT 1600FT
7:13 pm
I
73 °F 2 mi 3.600 ft 230° 230° 13 - 20 kt METAR CYYZ 262313Z 23013G20KT 180V250 2SM +RA OVC036 23/20 A2983 RMK SC8 SLP104 DENSITY ALT 1700FT
7:00 pm
V
77 °F 10 mi 4.000 ft 190° 190° 8 kt METAR CYYZ 262300Z 19008KT 10SM -RA BKN040 OVC070 25/17 A2983 RMK SC7AC1 SLP101 DENSITY ALT 2000FT
6:54 pm
V
77 °F 15 mi 4.000 ft 180° 180° 7 kt METAR CYYZ 262254Z 18007KT 15SM -RA BKN040 OVC080 25/17 A2983 RMK SC7AC1 SLP101 DENSITY ALT 2100FT
6:00 pm
V
79 °F 15 mi 6.500 ft 200° 200° 11 - 17 kt METAR CYYZ 262200Z 20011G17KT 15SM VCSH SCT042 BKN065 BKN240 26/18 A2983 RMK CU4SC2CI1 VIS LWR SE SLP103 DENSITY ALT 2200FT
5:00 pm
V
81 °F 15 mi 4.100 ft 220° 220° 12 - 18 kt METAR CYYZ 262100Z 22012G18KT 15SM BKN041 BKN140 BKN240 27/17 A2985 RMK CU5AC1CI1 SLP108 DENSITY ALT 2200FT
4:00 pm
V
81 °F 15 mi 4.200 ft 230° 230° 18 - 24 kt METAR CYYZ 262000Z 23018G24KT 15SM BKN042 BKN060 BKN260 27/17 A2987 RMK SC5SC1CI1 SLP115 DENSITY ALT 2100FT
3:00 pm
V
79 °F 15 mi 4.200 ft 230° 230° 11 - 21 kt METAR CYYZ 261900Z 23011G21KT 15SM BKN042 BKN240 26/17 A2989 RMK CU5CI2 SLP121 DENSITY ALT 2000FT
2:00 pm
V
79 °F 15 mi 3.800 ft 210° 210° 13 - 23 kt METAR CYYZ 261800Z 21013G23KT 170V250 15SM BKN038 BKN200 26/18 A2989 RMK CU6CI1 SLP123 DENSITY ALT 2100FT
1:00 pm
V
79 °F 15 mi 3.900 ft 220° 220° 16 - 22 kt METAR CYYZ 261700Z 22016G22KT 15SM BKN039 BKN200 26/17 A2991 RMK CU5CI2 SLP128 DENSITY ALT 2000FT
12:00 pm
V
75 °F 15 mi 3.200 ft 190° 190° 14 - 21 kt METAR CYYZ 261600Z 19014G21KT 15SM BKN032 BKN080 BKN220 24/17 A2993 RMK SC5AC1CI1 SLP137 DENSITY ALT 1800FT
11:00 am
V
72 °F 15 mi 6.100 ft 220° 220° 14 - 19 kt METAR CYYZ 261500Z 22014G19KT 15SM SCT033 BKN061 OVC180 22/16 A2994 RMK SC3SC3AC2 SLP140 DENSITY ALT 1500FT
10:00 am
V
64 °F 15 mi 11.000 ft 160° 160° 8 kt METAR CYYZ 261400Z 16008KT 15SM SCT054 BKN110 OVC260 18/14 A2996 RMK SC4AC3CI1 SLP147 DENSITY ALT 1100FT
9:00 am
V
63 °F 15 mi 11.000 ft 150° 150° 6 kt METAR CYYZ 261300Z 15006KT 15SM FEW040 BKN110 BKN180 17/13 A2997 RMK SC2AC4AC1 SLP152 DENSITY ALT 900FT
8:00 am
V
63 °F 15 mi 24.000 ft 140° 140° 7 kt METAR CYYZ 261200Z 14007KT 15SM FEW040 SCT160 BKN240 17/13 A2998 RMK SC1AC2CI3 SLP155 DENSITY ALT 900FT
7:00 am
V
61 °F 15 mi 22.000 ft 140° 140° 5 kt METAR CYYZ 261100Z 14005KT 15SM FEW038 SCT075 BKN220 16/13 A2998 RMK SC2AC2CI3 SLP156 DENSITY ALT 700FT
6:00 am
V
59 °F 15 mi 9.000 ft 150° 150° 5 kt METAR CYYZ 261000Z 15005KT 15SM SCT038 BKN090 BKN220 15/13 A2999 RMK SC4AC2CI1 BR SLP158 DENSITY ALT 700FT
5:00 am
V
59 °F 15 mi 10.000 ft 150° 150° 4 kt METAR CYYZ 260900Z 15004KT 130V240 15SM FEW085 BKN100 OVC240 15/12 A3001 RMK AC2AC3CI3 SLP163 DENSITY ALT 700FT
4:00 am
V
59 °F 15 mi 11.000 ft 120° 120° 4 kt METAR CYYZ 260800Z 12004KT 090V150 15SM SCT080 BKN110 OVC240 15/12 A3000 RMK AC3AC3CI2 SLP161 DENSITY ALT 600FT
3:00 am
V
57 °F 15 mi 12.000 ft 120° 120° 2 kt METAR CYYZ 260700Z 12002KT 15SM BKN120 OVC200 14/12 A3002 RMK AC5CI3 SLP167
2:00 am
V
57 °F 15 mi 11.000 ft 150° 150° 3 kt METAR CYYZ 260600Z 15003KT 15SM BKN110 14/12 A3003 RMK AC6 SLP173
1:00 am
V
57 °F 15 mi 22.000 ft 160° 160° 4 kt METAR CYYZ 260500Z 16004KT 15SM FEW130 BKN220 14/11 A3005 RMK AC2CI5 SLP177
12:00 am
V
59 °F 15 mi 20.000 ft 140° 140° 5 kt METAR CYYZ 260400Z 14005KT 15SM SCT120 BKN200 15/10 A3006 RMK AC3CI3 SLP182 DENSITY ALT 600FT

25 maggio 2022

Tempo Codice Tempo metereologico Temp. Vista Base nuvolosa Vento METAR/SPECI
11:00 pm
V
61 °F 15 mi 20.000 ft 120° 120° 5 kt METAR CYYZ 260300Z 12005KT 080V140 15SM FEW070 SCT120 BKN200 16/10 A3008 RMK AC2AC2CI3 SLP189 DENSITY ALT 700FT
10:00 pm
V
63 °F 15 mi 11.000 ft 090° 090° 12 - 17 kt METAR CYYZ 260200Z 09012G17KT 15SM SCT060 OVC110 17/11 A3009 RMK SC3AC5 INTMT -RA PRESFR SLP191 DENSITY ALT 700FT
9:00 pm
V
61 °F 15 mi 7.500 ft 100° 100° 10 - 16 kt METAR CYYZ 260100Z 10010G16KT 15SM -RA FEW055 OVC075 16/12 A3011 RMK SC1AC7 SLP199 DENSITY ALT 700FT
8:00 pm
V
63 °F 15 mi 11.000 ft 100° 100° 9 kt METAR CYYZ 260000Z 10009KT 060V130 15SM -RA FEW042 OVC110 17/12 A3013 RMK SC2AC6 SLP206 DENSITY ALT 800FT
7:09 pm
V
63 °F 15 mi 11.000 ft 090° 090° 10 kt METAR CYYZ 252309Z 09010KT 15SM -RA SCT042 OVC110 17/11 A3014 RMK SC3AC5 SLP209 DENSITY ALT 800FT
7:00 pm
V
63 °F 15 mi 11.000 ft 090° 090° 10 - 16 kt METAR CYYZ 252300Z 09010G16KT 15SM VCSH SCT042 OVC110 17/11 A3013 RMK SC3AC5 SLP208 DENSITY ALT 800FT
6:00 pm
V
64 °F 15 mi 4.600 ft 090° 090° 12 kt METAR CYYZ 252200Z 09012KT 15SM BKN046 OVC140 18/11 A3016 RMK SC5AC3 SLP218 DENSITY ALT 800FT
5:00 pm
V
64 °F 15 mi 4.100 ft 100° 100° 8 - 15 kt METAR CYYZ 252100Z 10008G15KT 15SM OVC041 18/10 A3018 RMK SC8 SLP225 DENSITY ALT 800FT
4:00 pm
V
64 °F 15 mi 4.500 ft 080° 080° 13 - 19 kt METAR CYYZ 252000Z 08013G19KT 15SM OVC045 18/08 A3020 RMK SC8 PRESFR SLP229 DENSITY ALT 800FT
3:00 pm
V
66 °F 15 mi 4.100 ft 080° 080° 11 - 18 kt METAR CYYZ 251900Z 08011G18KT 15SM BKN041 OVC200 19/07 A3022 RMK SC7CI1 SLP236 DENSITY ALT 800FT
2:00 pm
V
68 °F 15 mi 3.900 ft 090° 090° 13 - 20 kt METAR CYYZ 251800Z 09013G20KT 060V130 15SM BKN039 BKN210 20/07 A3025 RMK SC5CI2 SLP247 DENSITY ALT 900FT
1:00 pm
V
66 °F 15 mi 24.000 ft 110° 110° 15 - 21 kt METAR CYYZ 251700Z 11015G21KT 15SM FEW030 BKN240 19/08 A3027 RMK SC1CI4 SLP252 DENSITY ALT 800FT
12:00 pm
V
66 °F 15 mi 3.800 ft 100° 100° 13 - 24 kt METAR CYYZ 251600Z 10013G24KT 15SM BKN038 BKN260 19/06 A3029 RMK SC5CI2 SLP260 DENSITY ALT 800FT
11:00 am
V
63 °F 15 mi 3.200 ft 090° 090° 11 - 17 kt METAR CYYZ 251500Z 09011G17KT 15SM BKN032 OVC220 17/07 A3030 RMK SC7CI1 SLP266
10:00 am
V
63 °F 15 mi 26.000 ft 100° 100° 9 kt METAR CYYZ 251400Z 10009KT 15SM FEW040 BKN260 17/07 A3031 RMK SC2CI5 SLP269
9:00 am
V
61 °F 15 mi 26.000 ft 110° 110° 8 kt METAR CYYZ 251300Z 11008KT 070V130 15SM FEW190 BKN260 16/06 A3032 RMK AC1CI4 SLP270
Dati più vecchi

Scarica la nostra applicazione

Facile accesso a tutte le previsioni dell'aviazione sul tuo cellulare e tablet.
Con molte caratteristiche non disponibili sul sito web, come il supporto offline e una lista personale di aeroporti.

Noi e le terze parti seguiamo il tuo comportamento in internet sul nostro sito web con i cookie. Se continui, riteniamo che tu sia d'accordo con la nostra politica sui cookie. Per saperne di più